createdAt,value
2022-11-13T00:01:19.207Z,12.67
2022-11-13T00:04:06.201Z,11.67
2022-11-13T00:06:58.937Z,12.53
2022-11-13T00:09:45.946Z,15.30
2022-11-13T00:12:32.390Z,14.23
2022-11-13T00:15:19.043Z,13.30
2022-11-13T00:18:06.058Z,14.93
2022-11-13T00:20:52.644Z,17.20
2022-11-13T00:23:40.703Z,13.63
2022-11-13T00:26:28.842Z,13.53
2022-11-13T00:29:15.630Z,15.83
2022-11-13T00:32:01.899Z,15.40
2022-11-13T00:34:48.730Z,15.13
2022-11-13T00:37:35.536Z,12.93
2022-11-13T00:40:23.471Z,13.27
2022-11-13T00:43:10.171Z,9.40
2022-11-13T00:45:56.753Z,11.47
2022-11-13T00:48:43.182Z,10.97
2022-11-13T00:51:29.694Z,11.13
2022-11-13T00:54:16.371Z,11.27
2022-11-13T00:57:04.223Z,16.07
2022-11-13T00:59:50.937Z,12.50
2022-11-13T01:02:37.653Z,12.10
2022-11-13T01:05:24.388Z,11.60
2022-11-13T01:08:12.563Z,13.53
2022-11-13T01:10:59.315Z,12.00
2022-11-13T01:13:48.893Z,10.97
2022-11-13T01:16:35.417Z,11.13
2022-11-13T01:19:22.112Z,13.77
2022-11-13T01:22:08.674Z,13.77
2022-11-13T01:24:55.134Z,10.07
2022-11-13T01:27:41.618Z,12.87
2022-11-13T01:30:29.607Z,9.80
2022-11-13T01:33:16.377Z,10.23
2022-11-13T01:36:03.925Z,10.47
2022-11-13T01:38:52.542Z,9.60
2022-11-13T01:41:39.790Z,11.07
2022-11-13T01:44:26.125Z,8.43
2022-11-13T01:47:13.993Z,8.03
2022-11-13T01:50:02.989Z,7.87
2022-11-13T01:52:49.558Z,9.27
2022-11-13T01:55:36.002Z,7.67
2022-11-13T01:58:22.586Z,7.80
2022-11-13T02:01:09.491Z,7.97
2022-11-13T02:03:57.234Z,9.03
2022-11-13T02:06:46.992Z,6.93
2022-11-13T02:09:36.813Z,9.30
2022-11-13T02:12:29.504Z,7.83
2022-11-13T02:15:16.504Z,8.97
2022-11-13T02:18:04.971Z,7.70
2022-11-13T02:21:00.059Z,8.50
2022-11-13T02:23:51.935Z,8.30
2022-11-13T02:26:40.709Z,9.30
2022-11-13T02:29:27.125Z,6.60
2022-11-13T02:32:13.735Z,8.97
2022-11-13T02:35:00.367Z,7.80
2022-11-13T02:37:47.119Z,9.17
2022-11-13T02:40:35.475Z,7.53
2022-11-13T02:43:23.418Z,7.43
2022-11-13T02:46:10.274Z,7.20
2022-11-13T02:48:56.919Z,7.00
2022-11-13T02:51:43.609Z,7.13
2022-11-13T02:54:30.003Z,7.57
2022-11-13T02:57:16.471Z,6.00
2022-11-13T03:00:07.947Z,6.47
2022-11-13T03:02:58.871Z,7.33
2022-11-13T03:05:50.018Z,9.37
2022-11-13T03:08:37.392Z,5.60
2022-11-13T03:11:24.423Z,6.00
2022-11-13T03:14:11.159Z,5.47
2022-11-13T03:16:59.401Z,5.17
2022-11-13T03:19:45.846Z,5.23
2022-11-13T03:22:32.413Z,5.53
2022-11-13T03:25:19.242Z,5.40
2022-11-13T03:28:06.359Z,5.20
2022-11-13T03:30:52.655Z,5.10
2022-11-13T03:33:40.447Z,5.27
2022-11-13T03:36:27.720Z,5.43
2022-11-13T03:39:14.240Z,6.20
2022-11-13T03:42:00.993Z,5.40
2022-11-13T03:44:47.402Z,5.47
2022-11-13T03:47:33.813Z,5.73
2022-11-13T03:50:21.733Z,5.10
2022-11-13T03:53:08.260Z,5.23
2022-11-13T03:55:54.904Z,6.70
2022-11-13T03:58:43.712Z,6.80
2022-11-13T04:01:34.088Z,7.33
2022-11-13T04:04:21.150Z,6.57
2022-11-13T04:07:09.208Z,6.47
2022-11-13T04:09:55.847Z,8.67
2022-11-13T04:12:42.581Z,6.20
2022-11-13T04:15:29.346Z,6.10
2022-11-13T04:18:15.717Z,6.00
2022-11-13T04:21:03.292Z,7.63
2022-11-13T04:23:51.418Z,5.07
2022-11-13T04:26:38.125Z,6.13
2022-11-13T04:29:24.711Z,7.07
2022-11-13T04:32:11.336Z,7.23
2022-11-13T04:34:57.894Z,7.73
2022-11-13T04:37:44.486Z,11.90
2022-11-13T04:40:32.309Z,13.13
2022-11-13T04:43:18.082Z,6.20
2022-11-13T04:46:04.535Z,6.67
2022-11-13T04:48:51.120Z,9.47
2022-11-13T04:51:37.491Z,6.37
2022-11-13T04:54:28.533Z,7.63
2022-11-13T04:57:17.100Z,6.10
2022-11-13T05:00:06.223Z,5.30
2022-11-13T05:02:52.855Z,6.03
2022-11-13T05:05:39.323Z,5.03
2022-11-13T05:08:26.094Z,6.37
2022-11-13T05:11:12.816Z,5.60
2022-11-13T05:14:03.398Z,6.13
2022-11-13T05:16:51.703Z,8.03
2022-11-13T05:19:39.074Z,5.83
2022-11-13T05:22:25.627Z,6.03
2022-11-13T05:25:12.074Z,6.17
2022-11-13T05:27:59.211Z,5.17
2022-11-13T05:30:47.217Z,7.83
2022-11-13T05:33:34.122Z,6.00
2022-11-13T05:36:21.677Z,4.90
2022-11-13T05:39:08.685Z,5.60
2022-11-13T05:41:55.294Z,8.57
2022-11-13T05:44:41.670Z,5.73
2022-11-13T05:47:29.610Z,5.83
2022-11-13T05:50:16.687Z,6.27
2022-11-13T05:53:03.393Z,5.30
2022-11-13T05:55:49.818Z,5.53
2022-11-13T05:58:36.397Z,4.87
2022-11-13T06:01:25.482Z,5.67
2022-11-13T06:04:13.571Z,5.57
2022-11-13T06:07:00.485Z,6.03
2022-11-13T06:09:47.357Z,6.17
2022-11-13T06:12:33.864Z,5.30
2022-11-13T06:15:20.499Z,6.27
2022-11-13T06:18:07.041Z,5.17
2022-11-13T06:20:54.859Z,6.03
2022-11-13T06:23:42.166Z,7.10
2022-11-13T06:26:31.505Z,4.90
2022-11-13T06:29:18.310Z,5.20
2022-11-13T06:32:05.027Z,6.70
2022-11-13T06:34:51.498Z,5.90
2022-11-13T06:37:39.231Z,7.47
2022-11-13T06:40:25.859Z,6.77
2022-11-13T06:43:12.531Z,5.23
2022-11-13T06:45:59.355Z,6.70
2022-11-13T06:48:45.731Z,7.60
2022-11-13T06:51:32.670Z,6.57
2022-11-13T06:54:20.538Z,7.30
2022-11-13T06:57:07.100Z,8.13
2022-11-13T06:59:53.520Z,7.90
2022-11-13T07:02:40.108Z,7.17
2022-11-13T07:05:26.365Z,6.77
2022-11-13T07:08:13.726Z,7.43
2022-11-13T07:11:01.637Z,7.30
2022-11-13T07:13:49.077Z,7.97
2022-11-13T07:17:04.289Z,13.77
2022-11-13T07:19:42.413Z,6.97
2022-11-13T07:22:30.481Z,8.00
2022-11-13T07:25:17.219Z,8.37
2022-11-13T07:28:05.674Z,9.10
2022-11-13T07:30:52.084Z,9.67
2022-11-13T07:33:38.478Z,8.80
2022-11-13T07:36:24.950Z,8.93
2022-11-13T07:39:11.406Z,8.30
2022-11-13T07:41:57.827Z,9.13
2022-11-13T07:44:54.604Z,7.67
2022-11-13T07:47:42.043Z,10.63
2022-11-13T07:50:29.733Z,9.03
2022-11-13T07:53:16.846Z,8.70
2022-11-13T07:56:04.324Z,6.57
2022-11-13T07:58:50.823Z,8.57
2022-11-13T08:01:39.179Z,9.30
2022-11-13T08:04:26.110Z,7.03
2022-11-13T08:07:13.699Z,7.73
2022-11-13T08:10:00.574Z,11.83
2022-11-13T08:12:48.181Z,7.50
2022-11-13T08:15:35.647Z,8.97
2022-11-13T08:18:23.744Z,8.53
2022-11-13T08:21:14.690Z,10.50
2022-11-13T08:24:01.795Z,8.83
2022-11-13T08:26:48.443Z,8.03
2022-11-13T08:29:37.262Z,10.03
2022-11-13T08:32:24.175Z,9.63
2022-11-13T08:35:17.385Z,13.53
2022-11-13T08:38:06.994Z,11.87
2022-11-13T08:40:54.047Z,11.10
2022-11-13T08:43:40.913Z,10.63
2022-11-13T08:46:27.677Z,10.63
2022-11-13T08:49:14.184Z,10.77
2022-11-13T08:52:01.995Z,12.37
2022-11-13T08:54:48.759Z,10.83
2022-11-13T08:57:35.296Z,10.07
2022-11-13T09:00:22.505Z,12.93
2022-11-13T09:03:12.103Z,10.37
2022-11-13T09:05:59.059Z,12.40
2022-11-13T09:08:46.895Z,11.97
2022-11-13T09:11:33.929Z,14.80
2022-11-13T09:14:20.550Z,14.03
2022-11-13T09:17:07.470Z,11.83
2022-11-13T09:19:53.906Z,12.03
2022-11-13T09:22:40.357Z,14.00
2022-11-13T09:25:35.813Z,11.60
2022-11-13T09:28:23.685Z,8.70
2022-11-13T09:31:10.466Z,10.80
2022-11-13T09:33:57.066Z,11.33
2022-11-13T09:36:43.619Z,10.63
2022-11-13T09:39:30.149Z,9.27
2022-11-13T09:42:22.114Z,13.00
2022-11-13T09:45:14.313Z,8.00
2022-11-13T09:48:08.836Z,9.87
2022-11-13T09:50:55.807Z,8.53
2022-11-13T09:53:43.485Z,7.27
2022-11-13T09:56:34.553Z,8.47
2022-11-13T09:59:28.486Z,6.83
2022-11-13T10:02:22.879Z,8.57
2022-11-13T10:05:21.993Z,6.80
2022-11-13T10:08:14.592Z,6.10
2022-11-13T10:11:10.353Z,7.80
2022-11-13T10:14:03.169Z,6.17
2022-11-13T10:16:55.897Z,6.80
2022-11-13T10:19:50.443Z,6.00
2022-11-13T10:22:41.722Z,7.47
2022-11-13T10:25:33.441Z,6.87
2022-11-13T10:31:29.776Z,5.93
2022-11-13T10:34:18.945Z,4.30
2022-11-13T10:37:23.278Z,7.00
2022-11-13T10:40:10.281Z,5.47
2022-11-13T10:43:06.944Z,9.77
2022-11-13T10:45:58.422Z,6.47
2022-11-13T10:48:45.061Z,6.47
2022-11-13T10:51:35.274Z,6.63
2022-11-13T10:54:25.336Z,5.93
2022-11-13T10:57:34.661Z,5.13
2022-11-13T11:00:24.691Z,5.17
2022-11-13T11:03:16.263Z,6.77
2022-11-13T11:06:04.217Z,7.57
2022-11-13T11:08:52.074Z,8.03
2022-11-13T11:11:56.055Z,9.90
2022-11-13T11:14:53.833Z,5.77
2022-11-13T11:17:47.466Z,6.77
2022-11-13T11:20:48.743Z,7.17
2022-11-13T11:23:42.327Z,7.33
2022-11-13T11:26:35.069Z,6.83
2022-11-13T11:29:28.735Z,9.50
2022-11-13T11:32:24.048Z,6.07
2022-11-13T11:35:16.510Z,5.63
2022-11-13T11:38:11.244Z,8.63
2022-11-13T11:41:05.843Z,6.47
2022-11-13T11:44:02.246Z,6.03
2022-11-13T11:46:48.759Z,7.37
2022-11-13T11:49:35.195Z,7.37
2022-11-13T11:52:35.485Z,4.80
2022-11-13T11:55:44.902Z,5.47
2022-11-13T11:58:50.854Z,6.17
2022-11-13T12:02:02.874Z,6.23
2022-11-13T12:05:03.774Z,6.53
2022-11-13T12:08:07.431Z,5.70
2022-11-13T12:11:01.794Z,7.23
2022-11-13T12:13:59.331Z,9.00
2022-11-13T12:16:51.094Z,7.37
2022-11-13T12:19:51.787Z,8.57
2022-11-13T12:22:49.805Z,9.77
2022-11-13T12:25:43.207Z,10.27
2022-11-13T12:28:40.944Z,11.57
2022-11-13T12:31:44.984Z,7.03
2022-11-13T12:34:38.635Z,8.33
2022-11-13T12:37:34.178Z,8.23
2022-11-13T12:40:29.133Z,9.70
2022-11-13T12:43:47.770Z,9.60
2022-11-13T12:46:37.381Z,9.83
2022-11-13T12:49:34.452Z,9.23
2022-11-13T12:52:24.064Z,10.10
2022-11-13T12:55:27.508Z,11.40
2022-11-13T12:58:21.636Z,12.47
2022-11-13T13:01:18.611Z,13.13
2022-11-13T13:04:30.926Z,11.23
2022-11-13T13:07:34.072Z,12.73
2022-11-13T13:10:28.317Z,11.20
2022-11-13T13:13:24.366Z,12.43
2022-11-13T13:16:12.069Z,13.33
2022-11-13T13:19:08.955Z,14.27
2022-11-13T13:21:56.631Z,12.47
2022-11-13T13:24:44.647Z,11.40
2022-11-13T13:27:34.317Z,14.50
2022-11-13T13:30:23.015Z,11.37
2022-11-13T13:33:21.246Z,13.27
2022-11-13T13:36:19.074Z,11.53
2022-11-13T13:39:29.596Z,13.93
2022-11-13T13:42:34.195Z,10.90
2022-11-13T13:45:28.806Z,17.63
2022-11-13T13:48:20.248Z,15.53
2022-11-13T13:51:18.546Z,13.83
2022-11-13T13:54:09.476Z,14.37
2022-11-13T13:56:58.603Z,14.30
2022-11-13T13:59:46.813Z,13.27
2022-11-13T14:02:33.739Z,13.77
2022-11-13T14:05:29.531Z,16.77
2022-11-13T14:08:20.496Z,14.23
2022-11-13T14:11:18.826Z,18.53
2022-11-13T14:14:09.922Z,15.63
2022-11-13T14:17:00.508Z,17.10
2022-11-13T14:19:51.136Z,18.37
2022-11-13T14:22:38.041Z,19.43
2022-11-13T14:25:27.666Z,17.03
2022-11-13T14:28:17.033Z,16.57
2022-11-13T14:31:05.999Z,17.37
2022-11-13T14:33:54.317Z,17.43
2022-11-13T14:36:41.363Z,26.17
2022-11-13T14:39:31.466Z,25.60
2022-11-13T14:42:20.991Z,27.33
2022-11-13T14:45:15.589Z,31.13
2022-11-13T14:48:04.138Z,34.43
2022-11-13T14:50:54.298Z,31.77
2022-11-13T14:53:43.426Z,36.87
2022-11-13T14:56:35.336Z,31.70
2022-11-13T14:59:27.662Z,29.63
2022-11-13T15:02:15.018Z,27.40
2022-11-13T15:05:01.591Z,27.43
2022-11-13T15:07:50.104Z,27.10
2022-11-13T15:10:38.224Z,24.53
2022-11-13T15:13:26.210Z,28.90
2022-11-13T15:16:17.067Z,25.93
2022-11-13T15:19:07.299Z,27.63
2022-11-13T15:22:25.278Z,27.87
2022-11-13T15:25:04.568Z,28.67
2022-11-13T15:27:51.144Z,28.53
2022-11-13T15:30:37.866Z,28.70
2022-11-13T15:33:24.604Z,29.73
2022-11-13T15:36:11.506Z,26.37
2022-11-13T15:38:59.138Z,30.60
2022-11-13T15:41:49.650Z,29.07
2022-11-13T15:44:36.132Z,31.23
2022-11-13T15:47:28.639Z,32.23
2022-11-13T15:50:16.092Z,30.10
2022-11-13T15:53:05.681Z,32.30
2022-11-13T15:55:52.479Z,33.30
2022-11-13T15:58:40.464Z,32.30
2022-11-13T16:01:27.323Z,30.90
2022-11-13T16:04:16.194Z,29.57
2022-11-13T16:07:03.113Z,29.13
2022-11-13T16:09:50.287Z,29.17
2022-11-13T16:12:37.046Z,31.10
2022-11-13T16:15:24.831Z,29.83
2022-11-13T16:18:21.237Z,31.83
2022-11-13T16:21:07.963Z,28.93
2022-11-13T16:23:54.497Z,34.67
2022-11-13T16:26:42.980Z,35.50
2022-11-13T16:29:30.915Z,30.13
2022-11-13T16:32:19.094Z,28.03
2022-11-13T16:35:06.476Z,31.23
2022-11-13T16:37:53.153Z,34.63
2022-11-13T16:40:41.499Z,31.83
2022-11-13T16:43:28.518Z,28.60
2022-11-13T16:46:21.487Z,31.53
2022-11-13T16:49:13.646Z,29.90
2022-11-13T16:52:00.346Z,35.73
2022-11-13T16:54:46.685Z,34.73
2022-11-13T16:57:33.245Z,35.67
2022-11-13T17:00:20.699Z,32.20
2022-11-13T17:03:07.120Z,33.47
2022-11-13T17:05:54.984Z,29.97
2022-11-13T17:08:41.460Z,34.90
2022-11-13T17:11:30.027Z,34.87
2022-11-13T17:14:16.475Z,35.93
2022-11-13T17:17:03.103Z,33.63
2022-11-13T17:19:50.277Z,34.83
2022-11-13T17:22:38.003Z,29.17
2022-11-13T17:25:26.772Z,35.00
2022-11-13T17:28:13.917Z,31.17
2022-11-13T17:31:04.027Z,35.77
2022-11-13T17:33:53.772Z,33.60
2022-11-13T17:36:40.148Z,37.23
2022-11-13T17:39:28.255Z,34.10
2022-11-13T17:42:14.825Z,37.40
2022-11-13T17:45:01.235Z,35.40
2022-11-13T17:47:47.745Z,37.23
2022-11-13T17:50:34.299Z,31.63
2022-11-13T17:53:20.959Z,35.80
2022-11-13T17:56:11.733Z,31.90
2022-11-13T17:58:58.359Z,34.70
2022-11-13T18:01:45.176Z,35.27
2022-11-13T18:04:32.439Z,40.73
2022-11-13T18:07:19.160Z,36.33
2022-11-13T18:10:06.890Z,43.07
2022-11-13T18:12:54.704Z,39.30
2022-11-13T18:15:42.235Z,35.70
2022-11-13T18:18:29.076Z,35.30
2022-11-13T18:21:22.721Z,34.40
2022-11-13T18:24:16.624Z,38.73
2022-11-13T18:27:03.355Z,36.37
2022-11-13T18:29:51.448Z,37.83
2022-11-13T18:32:38.105Z,32.07
2022-11-13T18:35:24.574Z,35.70
2022-11-13T18:38:11.090Z,37.10
2022-11-13T18:41:02.782Z,38.77
2022-11-13T18:43:51.083Z,38.83
2022-11-13T18:46:39.015Z,42.50
2022-11-13T18:49:25.763Z,43.03
2022-11-13T18:52:12.431Z,40.83
2022-11-13T18:54:59.250Z,42.00
2022-11-13T18:57:45.834Z,43.13
2022-11-13T19:00:32.188Z,38.07
2022-11-13T19:03:20.143Z,40.93
2022-11-13T19:06:07.850Z,40.80
2022-11-13T19:08:58.706Z,37.37
2022-11-13T19:11:46.012Z,39.00
2022-11-13T19:14:32.447Z,38.83
2022-11-13T19:17:18.838Z,39.40
2022-11-13T19:20:08.266Z,38.27
2022-11-13T19:22:54.761Z,40.47
2022-11-13T19:25:41.242Z,44.30
2022-11-13T19:28:28.688Z,41.03
2022-11-13T19:31:18.147Z,40.43
2022-11-13T19:34:07.198Z,38.10
2022-11-13T19:36:54.993Z,39.43
2022-11-13T19:39:41.761Z,42.47
2022-11-13T19:42:28.277Z,40.20
2022-11-13T19:45:14.791Z,40.17
2022-11-13T19:48:01.565Z,43.20
2022-11-13T19:50:48.193Z,40.57
2022-11-13T19:53:36.647Z,36.63
2022-11-13T19:56:24.930Z,40.60
2022-11-13T19:59:12.198Z,40.03
2022-11-13T20:01:58.978Z,38.60
2022-11-13T20:04:45.933Z,41.70
2022-11-13T20:07:32.780Z,43.20
2022-11-13T20:10:20.915Z,36.93
2022-11-13T20:13:07.537Z,41.40
2022-11-13T20:15:55.242Z,37.17
2022-11-13T20:18:42.730Z,41.23
2022-11-13T20:21:31.418Z,41.23
2022-11-13T20:24:17.970Z,37.50
2022-11-13T20:27:05.750Z,35.00
2022-11-13T20:29:52.537Z,45.57
2022-11-13T20:32:39.644Z,40.37
2022-11-13T20:35:27.078Z,37.87
2022-11-13T20:38:13.703Z,40.87
2022-11-13T20:41:04.305Z,35.83
2022-11-13T20:43:53.053Z,36.73
2022-11-13T20:46:39.796Z,39.70
2022-11-13T20:49:26.438Z,37.20
2022-11-13T20:52:12.990Z,35.60
2022-11-13T20:54:59.911Z,35.67
2022-11-13T20:57:46.431Z,37.90
2022-11-13T21:00:34.129Z,46.10
2022-11-13T21:03:20.943Z,41.73
2022-11-13T21:06:08.267Z,38.93
2022-11-13T21:08:56.424Z,40.73
2022-11-13T21:11:43.022Z,39.43
2022-11-13T21:14:29.531Z,39.63
2022-11-13T21:17:17.286Z,39.80
2022-11-13T21:20:04.103Z,40.93
2022-11-13T21:22:50.759Z,37.57
2022-11-13T21:25:37.322Z,35.27
2022-11-13T21:28:27.010Z,36.77
2022-11-13T21:31:17.698Z,39.00
2022-11-13T21:34:05.820Z,36.40
2022-11-13T21:36:52.463Z,37.53
2022-11-13T21:39:38.760Z,36.57
2022-11-13T21:42:25.680Z,37.63
2022-11-13T21:45:12.207Z,39.87
2022-11-13T21:47:58.694Z,32.27
2022-11-13T21:50:46.855Z,39.03
2022-11-13T21:53:33.346Z,38.30
2022-11-13T21:56:19.881Z,35.13
2022-11-13T21:59:07.089Z,35.80
2022-11-13T22:01:53.955Z,38.33
2022-11-13T22:04:41.069Z,36.63
2022-11-13T22:07:29.004Z,35.83
2022-11-13T22:10:16.241Z,36.10
2022-11-13T22:13:03.006Z,33.50
2022-11-13T22:15:50.611Z,43.73
2022-11-13T22:18:37.458Z,37.80
2022-11-13T22:21:25.664Z,37.10
2022-11-13T22:24:14.892Z,32.43
2022-11-13T22:27:01.307Z,38.87
2022-11-13T22:29:48.016Z,36.83
2022-11-13T22:32:34.460Z,37.27
2022-11-13T22:35:20.918Z,37.50
2022-11-13T22:38:07.392Z,36.03
2022-11-13T22:40:55.325Z,38.50
2022-11-13T22:43:43.719Z,36.63
2022-11-13T22:46:32.514Z,37.43
2022-11-13T22:49:19.207Z,38.17
2022-11-13T22:52:06.252Z,37.63
2022-11-13T22:54:52.690Z,38.43
2022-11-13T22:57:40.659Z,32.97
2022-11-13T23:00:27.383Z,38.83
2022-11-13T23:03:14.449Z,38.77
2022-11-13T23:06:03.687Z,41.57
2022-11-13T23:08:50.779Z,42.77
2022-11-13T23:11:40.092Z,37.87
2022-11-13T23:14:28.014Z,40.23
2022-11-13T23:17:14.492Z,41.60
2022-11-13T23:20:01.207Z,46.37
2022-11-13T23:22:47.764Z,42.77
2022-11-13T23:25:34.284Z,44.00
2022-11-13T23:28:20.893Z,39.83
2022-11-13T23:31:09.217Z,37.90
2022-11-13T23:33:55.928Z,38.43
2022-11-13T23:36:42.483Z,39.47
2022-11-13T23:39:28.798Z,37.83
2022-11-13T23:42:20.705Z,41.03
2022-11-13T23:45:19.944Z,41.40
2022-11-13T23:48:08.143Z,37.27
2022-11-13T23:50:54.685Z,41.37
2022-11-13T23:53:41.298Z,39.77
2022-11-13T23:56:27.865Z,36.70
2022-11-13T23:59:14.284Z,43.67
